Time;durP1;ratioP1;P1;durP2;ratioP2;P2;SDS_P1;SDS_P2;PMS_P1;PMS_P2;Temp;Humidity;BMP_temperature;BMP_pressure;BME280_temperature;BME280_humidity;BME280_pressure;Samples;Min_cycle;Max_cycle;Signal;HPM_P1;HPM_P2
2021/01/01 00:00:38;;;;;;;16.17;13.97;;;7.50;96.10;;;;;;5073062;28;20693;-50
2021/01/01 00:03:05;;;;;;;16.27;14.57;;;7.50;96.20;;;;;;5073233;28;20991;-52
2021/01/01 00:05:32;;;;;;;13.47;12.20;;;7.40;96.20;;;;;;5072855;28;20628;-51
2021/01/01 00:07:59;;;;;;;15.43;11.97;;;7.30;96.20;;;;;;5073793;28;20627;-52
2021/01/01 00:10:27;;;;;;;12.10;10.60;;;7.40;96.30;;;;;;5073226;28;20697;-51
2021/01/01 00:12:53;;;;;;;14.60;13.10;;;7.40;96.40;;;;;;5073907;28;20681;-52
2021/01/01 00:15:20;;;;;;;13.53;12.23;;;7.30;96.40;;;;;;5072819;28;20666;-50
2021/01/01 00:17:47;;;;;;;16.23;14.63;;;7.40;96.40;;;;;;5073159;28;21082;-51
2021/01/01 00:20:14;;;;;;;16.87;15.13;;;7.40;96.30;;;;;;5072694;28;20650;-50
2021/01/01 00:22:42;;;;;;;17.03;15.23;;;7.50;96.30;;;;;;5073195;28;20650;-50
2021/01/01 00:25:09;;;;;;;19.00;15.30;;;7.50;96.20;;;;;;5072733;28;20667;-50
2021/01/01 00:27:36;;;;;;;18.90;16.40;;;7.50;96.20;;;;;;5072887;28;21194;-50
2021/01/01 00:30:04;;;;;;;19.47;16.47;;;7.40;96.20;;;;;;5072632;28;20619;-50
2021/01/01 00:32:31;;;;;;;16.60;12.87;;;7.40;96.30;;;;;;5071808;28;20687;-50
2021/01/01 00:34:58;;;;;;;19.97;14.47;;;7.40;96.40;;;;;;5072389;28;20670;-51
2021/01/01 00:37:24;;;;;;;19.00;15.20;;;7.40;96.40;;;;;;5072595;28;21249;-50
2021/01/01 00:39:51;;;;;;;15.60;13.57;;;7.40;96.50;;;;;;5072623;28;20686;-50
2021/01/01 00:42:18;;;;;;;19.80;17.10;;;7.40;96.40;;;;;;5072572;28;20679;-50
2021/01/01 00:44:45;;;;;;;16.93;15.43;;;7.40;96.40;;;;;;5072442;28;20632;-50
2021/01/01 00:47:12;;;;;;;20.03;16.53;;;7.40;96.30;;;;;;5072306;28;20628;-50
2021/01/01 00:49:39;;;;;;;18.13;16.20;;;7.40;96.20;;;;;;5072438;28;21380;-50
2021/01/01 00:52:06;;;;;;;17.00;15.40;;;7.40;96.20;;;;;;5071883;28;20764;-50
2021/01/01 00:54:33;;;;;;;15.30;13.77;;;7.50;96.20;;;;;;5072714;28;20671;-50
2021/01/01 00:56:59;;;;;;;19.37;16.63;;;7.50;96.10;;;;;;5071431;28;20656;-50
2021/01/01 00:59:27;;;;;;;21.40;15.00;;;7.50;96.10;;;;;;5072079;28;21199;-51
2021/01/01 01:01:55;;;;;;;19.67;15.47;;;7.60;96.20;;;;;;5072228;28;20945;-50
2021/01/01 01:04:22;;;;;;;15.40;13.97;;;7.50;96.10;;;;;;5051723;28;20666;-50
2021/01/01 01:06:49;;;;;;;20.57;16.90;;;7.50;96.10;;;;;;5071716;28;20656;-50
2021/01/01 01:09:15;;;;;;;17.77;15.90;;;7.50;96.20;;;;;;5071209;28;21183;-50
2021/01/01 01:11:42;;;;;;;19.87;16.00;;;7.50;96.20;;;;;;5070895;28;20656;-50
2021/01/01 01:14:09;;;;;;;18.43;16.67;;;7.60;96.10;;;;;;5071903;28;20642;-51
2021/01/01 01:16:36;;;;;;;19.83;17.73;;;7.60;96.10;;;;;;5072055;28;20666;-51
2021/01/01 01:19:03;;;;;;;17.97;15.93;;;7.60;96.10;;;;;;5072149;28;20688;-50
2021/01/01 01:21:30;;;;;;;17.80;15.43;;;7.60;95.90;;;;;;5071742;28;20687;-51
2021/01/01 01:23:57;;;;;;;18.40;16.43;;;7.60;95.90;;;;;;5069966;28;20656;-51
2021/01/01 01:26:24;;;;;;;17.47;15.67;;;7.60;96.00;;;;;;5071668;28;20643;-51
2021/01/01 01:28:51;;;;;;;19.60;15.50;;;7.60;96.10;;;;;;5071159;28;20711;-50
2021/01/01 01:31:17;;;;;;;15.67;14.00;;;7.50;96.10;;;;;;5071473;28;20680;-50
2021/01/01 01:33:45;;;;;;;18.07;16.27;;;7.50;96.10;;;;;;5071601;28;20658;-50
2021/01/01 01:36:13;;;;;;;18.03;15.00;;;7.60;96.20;;;;;;5052251;28;20682;-51
2021/01/01 01:38:39;;;;;;;20.27;17.17;;;7.60;96.00;;;;;;5070884;28;20707;-50
2021/01/01 01:41:06;;;;;;;15.90;14.20;;;7.60;96.00;;;;;;5071364;28;20672;-50
2021/01/01 01:43:33;;;;;;;15.40;13.63;;;7.60;95.90;;;;;;5052635;28;20622;-50
2021/01/01 01:46:00;;;;;;;15.03;12.80;;;7.70;95.70;;;;;;5071553;28;20658;-50
2021/01/01 01:48:27;;;;;;;15.40;13.60;;;7.70;95.60;;;;;;5071177;28;20625;-50
2021/01/01 01:50:54;;;;;;;17.37;14.10;;;7.70;95.60;;;;;;5071312;28;20695;-50
2021/01/01 01:53:22;;;;;;;14.50;13.10;;;7.70;95.50;;;;;;5070537;28;20689;-51
2021/01/01 01:55:49;;;;;;;15.57;13.97;;;7.70;95.50;;;;;;5068175;28;20689;-50
2021/01/01 01:58:15;;;;;;;16.43;14.73;;;7.70;95.40;;;;;;5070875;28;21291;-50
2021/01/01 02:00:57;;;;;;;13.90;12.57;;;7.70;95.40;;;;;;5071403;28;20676;-50
2021/01/01 02:03:24;;;;;;;13.53;11.40;;;7.60;95.40;;;;;;5071159;28;20628;-50
2021/01/01 02:05:51;;;;;;;13.57;12.23;;;7.70;95.40;;;;;;5070997;28;20672;-51
2021/01/01 02:08:18;;;;;;;15.00;13.07;;;7.60;95.30;;;;;;5070275;28;20655;-50
2021/01/01 02:10:46;;;;;;;14.27;12.10;;;7.60;95.40;;;;;;5070769;28;21285;-50
2021/01/01 02:13:13;;;;;;;12.10;10.90;;;7.60;95.40;;;;;;5070658;28;20709;-50
2021/01/01 02:15:40;;;;;;;14.93;10.70;;;7.60;95.40;;;;;;5070890;28;20632;-50
2021/01/01 02:18:07;;;;;;;12.97;11.67;;;7.70;95.40;;;;;;5070782;28;21013;-50
2021/01/01 02:20:33;;;;;;;13.70;11.83;;;7.60;95.30;;;;;;5070696;28;20703;-50
2021/01/01 02:23:02;;;;;;;13.17;11.70;;;7.60;95.30;;;;;;5066450;28;20660;-50
2021/01/01 02:25:29;;;;;;;14.67;11.10;;;7.60;95.30;;;;;;5063294;28;20761;-50
2021/01/01 02:27:56;;;;;;;11.00;9.23;;;7.60;95.30;;;;;;5078315;28;20678;-50
2021/01/01 02:30:23;;;;;;;10.60;9.40;;;7.70;95.20;;;;;;5090290;28;20680;-50
2021/01/01 02:32:49;;;;;;;12.20;10.90;;;7.70;95.10;;;;;;5085772;28;21169;-50
2021/01/01 02:35:16;;;;;;;13.37;11.80;;;7.70;95.10;;;;;;5082111;28;20652;-50
2021/01/01 02:37:43;;;;;;;13.10;9.33;;;7.60;95.00;;;;;;5090206;28;21213;-51
2021/01/01 02:40:11;;;;;;;11.87;10.77;;;7.70;95.10;;;;;;5071962;28;20671;-50
2021/01/01 02:42:38;;;;;;;15.27;11.80;;;7.60;95.00;;;;;;5070064;28;20631;-50
2021/01/01 02:45:06;;;;;;;15.47;11.23;;;7.60;95.10;;;;;;5070439;28;20638;-50
2021/01/01 02:47:33;;;;;;;14.10;11.67;;;7.60;95.20;;;;;;5069235;28;20702;-50
2021/01/01 02:49:59;;;;;;;13.23;10.60;;;7.60;95.20;;;;;;5070247;28;20664;-50
2021/01/01 02:52:26;;;;;;;17.63;12.60;;;7.60;95.40;;;;;;5070174;28;20745;-50
2021/01/01 02:54:53;;;;;;;12.73;11.43;;;7.60;95.30;;;;;;5065147;28;20729;-50
2021/01/01 02:57:20;;;;;;;13.10;11.03;;;7.70;95.40;;;;;;5069741;28;20659;-50
2021/01/01 02:59:47;;;;;;;13.43;12.10;;;7.60;95.30;;;;;;5069708;28;20654;-50
2021/01/01 03:02:14;;;;;;;14.60;12.40;;;7.70;95.30;;;;;;5070036;28;20676;-50
2021/01/01 03:04:41;;;;;;;17.23;13.37;;;7.70;95.30;;;;;;5069646;28;20668;-50
2021/01/01 03:07:07;;;;;;;15.77;14.07;;;7.70;95.30;;;;;;5069160;28;20655;-50
2021/01/01 03:09:34;;;;;;;17.13;14.70;;;7.70;95.40;;;;;;5069774;28;20644;-50
2021/01/01 03:12:01;;;;;;;13.63;11.67;;;7.70;95.40;;;;;;5067390;28;20667;-50
2021/01/01 03:14:28;;;;;;;15.60;13.77;;;7.70;95.30;;;;;;5051425;28;20624;-50
2021/01/01 03:16:55;;;;;;;16.30;13.77;;;7.60;95.30;;;;;;5049973;28;20659;-50
2021/01/01 03:19:22;;;;;;;16.63;12.97;;;7.60;95.50;;;;;;5049565;28;20695;-50
2021/01/01 03:21:49;;;;;;;15.47;12.40;;;7.60;95.50;;;;;;5049261;28;20712;-50
2021/01/01 03:24:15;;;;;;;17.43;11.90;;;7.50;95.50;;;;;;5049530;28;20655;-50
2021/01/01 03:26:42;;;;;;;16.43;12.70;;;7.50;95.50;;;;;;5062490;28;20671;-50
2021/01/01 03:29:09;;;;;;;17.60;12.90;;;7.50;95.60;;;;;;5067961;28;20626;-50
2021/01/01 03:31:36;;;;;;;13.40;11.83;;;7.50;95.60;;;;;;5074422;28;21306;-50
2021/01/01 03:34:03;;;;;;;18.10;13.03;;;7.50;95.70;;;;;;5070995;28;21265;-50
2021/01/01 03:36:30;;;;;;;17.53;11.90;;;7.50;95.70;;;;;;5069599;28;20662;-50
2021/01/01 03:38:56;;;;;;;15.07;11.73;;;7.40;95.60;;;;;;5069680;28;20742;-50
2021/01/01 03:41:23;;;;;;;14.83;12.67;;;7.40;95.80;;;;;;5069369;28;20687;-50
2021/01/01 03:43:50;;;;;;;14.03;10.10;;;7.40;95.80;;;;;;5069379;28;20658;-50
2021/01/01 03:46:16;;;;;;;12.23;8.60;;;7.40;95.70;;;;;;5069486;28;20652;-50
2021/01/01 03:48:44;;;;;;;12.57;9.10;;;7.20;95.30;;;;;;5051116;28;20660;-50
2021/01/01 03:51:11;;;;;;;12.97;11.63;;;7.10;95.30;;;;;;5069557;28;20682;-49
2021/01/01 03:53:37;;;;;;;12.83;10.60;;;7.10;95.50;;;;;;5069546;28;20630;-50
2021/01/01 03:56:04;;;;;;;8.10;7.30;;;7.00;95.70;;;;;;5069409;28;20663;-49
2021/01/01 03:58:31;;;;;;;13.50;12.10;;;6.90;95.60;;;;;;5069863;28;20698;-49
2021/01/01 04:00:59;;;;;;;13.20;9.57;;;6.80;95.80;;;;;;5069643;28;20699;-51
2021/01/01 04:03:26;;;;;;;9.70;8.70;;;6.80;95.90;;;;;;5069924;28;20663;-51
2021/01/01 04:05:53;;;;;;;11.30;9.37;;;6.90;95.90;;;;;;5051579;28;20627;-51
2021/01/01 04:08:20;;;;;;;11.27;8.17;;;6.90;95.40;;;;;;5069295;28;20709;-51
2021/01/01 04:10:46;;;;;;;9.17;7.40;;;6.90;95.20;;;;;;5069230;28;20730;-51
2021/01/01 04:13:13;;;;;;;8.97;8.10;;;7.00;95.10;;;;;;5069084;28;20655;-51
2021/01/01 04:15:40;;;;;;;8.37;7.60;;;7.00;94.90;;;;;;5069439;28;20686;-51
2021/01/01 04:18:07;;;;;;;10.20;8.97;;;7.00;94.90;;;;;;5069658;28;20798;-51
2021/01/01 04:20:33;;;;;;;10.53;9.43;;;7.00;94.80;;;;;;5068997;28;20702;-51
2021/01/01 04:23:01;;;;;;;10.10;8.43;;;7.00;94.80;;;;;;5068876;28;20644;-51
2021/01/01 04:25:28;;;;;;;6.90;5.80;;;7.10;94.90;;;;;;5069350;28;20635;-51
2021/01/01 04:27:55;;;;;;;5.70;5.13;;;7.10;94.60;;;;;;5069372;28;21009;-51
2021/01/01 04:30:21;;;;;;;6.23;5.63;;;7.20;94.10;;;;;;5068500;28;20627;-51
2021/01/01 04:32:48;;;;;;;6.37;5.77;;;7.20;93.70;;;;;;5069348;28;20696;-52
2021/01/01 04:35:15;;;;;;;8.27;6.50;;;7.20;93.80;;;;;;5069129;28;20769;-51
2021/01/01 04:37:42;;;;;;;10.37;8.33;;;7.20;93.70;;;;;;5068654;28;20668;-51
2021/01/01 04:40:10;;;;;;;9.60;8.27;;;7.30;93.80;;;;;;5069172;28;20924;-51
2021/01/01 04:42:37;;;;;;;10.73;9.20;;;7.30;94.00;;;;;;5068928;28;20695;-51
2021/01/01 04:45:04;;;;;;;11.30;10.13;;;7.30;94.10;;;;;;5069061;28;20679;-51
2021/01/01 04:47:32;;;;;;;12.00;9.97;;;7.40;94.30;;;;;;5072389;28;20654;-51
2021/01/01 04:50:00;;;;;;;12.47;10.13;;;7.40;94.30;;;;;;5072724;28;20665;-50
2021/01/01 04:52:29;;;;;;;13.90;11.60;;;7.40;94.30;;;;;;5072559;28;20743;-51
2021/01/01 04:54:56;;;;;;;15.40;12.37;;;7.50;94.30;;;;;;5072730;28;20661;-52
2021/01/01 04:57:24;;;;;;;14.97;12.20;;;7.50;94.30;;;;;;5072232;28;20636;-51
2021/01/01 04:59:51;;;;;;;14.53;11.23;;;7.40;94.30;;;;;;5072801;28;20714;-51
2021/01/01 05:02:17;;;;;;;14.23;12.23;;;7.40;94.40;;;;;;5072546;28;20721;-50
2021/01/01 05:04:45;;;;;;;11.17;9.97;;;7.50;94.50;;;;;;5071312;28;20659;-51
2021/01/01 05:07:16;;;;;;;14.23;11.80;;;7.40;94.50;;;;;;5071577;28;20723;-50
2021/01/01 05:09:43;;;;;;;12.90;10.47;;;7.40;94.40;;;;;;5072340;28;20647;-50
2021/01/01 05:12:10;;;;;;;16.13;10.17;;;7.50;94.30;;;;;;5072321;28;20717;-50
2021/01/01 05:14:38;;;;;;;11.00;9.70;;;7.40;94.10;;;;;;5057217;28;20653;-50
2021/01/01 05:17:04;;;;;;;12.27;11.07;;;7.40;94.20;;;;;;5052405;28;20760;-51
2021/01/01 05:19:41;;;;;;;13.03;9.10;;;7.40;93.90;;;;;;5052124;28;20704;-50
2021/01/01 05:22:09;;;;;;;10.30;9.00;;;7.40;93.80;;;;;;5056424;28;20757;-51
2021/01/01 05:24:39;;;;;;;8.47;7.67;;;7.40;93.70;;;;;;5072197;28;20631;-51
2021/01/01 05:27:13;;;;;;;10.97;9.80;;;7.40;93.50;;;;;;5071869;28;20793;-51
2021/01/01 05:29:43;;;;;;;10.73;9.60;;;7.40;93.60;;;;;;5071569;28;20727;-50
2021/01/01 05:32:10;;;;;;;10.93;8.83;;;7.30;93.60;;;;;;5071915;28;20758;-51
2021/01/01 05:34:46;;;;;;;10.90;8.93;;;7.30;93.70;;;;;;5072159;28;20753;-49
2021/01/01 05:37:13;;;;;;;11.07;8.67;;;7.20;93.70;;;;;;5072605;28;21063;-50
2021/01/01 05:39:39;;;;;;;13.33;10.70;;;7.20;93.70;;;;;;5072497;28;21230;-50
2021/01/01 05:42:06;;;;;;;15.30;10.20;;;7.20;93.80;;;;;;5072554;28;20687;-50
2021/01/01 05:44:33;;;;;;;10.93;9.47;;;7.20;93.80;;;;;;5072140;28;20650;-50
2021/01/01 05:47:03;;;;;;;10.20;9.10;;;7.20;93.80;;;;;;5071136;28;20681;-50
2021/01/01 05:49:31;;;;;;;10.30;8.87;;;7.20;93.80;;;;;;5072124;28;20655;-50
2021/01/01 05:52:11;;;;;;;13.83;11.07;;;7.20;93.80;;;;;;5071580;28;21013;-50
2021/01/01 05:54:39;;;;;;;11.47;9.37;;;7.20;93.90;;;;;;5070784;28;21177;-50
2021/01/01 05:57:06;;;;;;;14.13;10.03;;;7.20;94.00;;;;;;5070214;28;20665;-50
2021/01/01 05:59:37;;;;;;;12.00;10.70;;;7.20;94.00;;;;;;5070986;28;20688;-50
2021/01/01 06:02:05;;;;;;;13.33;11.23;;;7.20;94.00;;;;;;5070967;28;20655;-50
2021/01/01 06:04:32;;;;;;;14.40;12.00;;;7.30;94.00;;;;;;5071230;28;20723;-50
2021/01/01 06:07:00;;;;;;;11.33;10.00;;;7.30;94.30;;;;;;5070938;28;20655;-50
2021/01/01 06:09:28;;;;;;;13.30;10.63;;;7.30;94.00;;;;;;5071135;28;20623;-51
2021/01/01 06:12:03;;;;;;;11.40;10.27;;;7.30;94.00;;;;;;5070607;28;20687;-51
2021/01/01 06:14:31;;;;;;;14.00;9.83;;;7.20;94.00;;;;;;5070557;28;20995;-51
2021/01/01 06:17:15;;;;;;;11.80;10.43;;;7.20;94.10;;;;;;5071356;28;20619;-51
2021/01/01 06:19:43;;;;;;;13.03;10.87;;;7.10;94.10;;;;;;5070833;28;20692;-51
2021/01/01 06:22:13;;;;;;;12.87;9.97;;;7.10;94.10;;;;;;5070373;28;20667;-51
2021/01/01 06:24:43;;;;;;;12.53;10.73;;;7.10;94.20;;;;;;5070986;28;20658;-51
2021/01/01 06:27:11;;;;;;;15.47;11.07;;;7.10;94.30;;;;;;5070165;28;21145;-51
2021/01/01 06:29:37;;;;;;;17.63;11.87;;;7.00;94.20;;;;;;5070209;28;20671;-51
2021/01/01 06:32:05;;;;;;;13.30;11.47;;;7.10;94.20;;;;;;5070421;28;20694;-52
2021/01/01 06:34:32;;;;;;;14.73;9.93;;;7.00;94.10;;;;;;5070657;28;20627;-51
2021/01/01 06:36:59;;;;;;;14.77;10.97;;;7.00;94.10;;;;;;5070294;28;20663;-51
2021/01/01 06:39:45;;;;;;;15.30;10.97;;;7.00;94.20;;;;;;5069837;28;21222;-51
2021/01/01 06:42:12;;;;;;;14.53;9.23;;;7.00;94.30;;;;;;5070206;28;20687;-51
2021/01/01 06:44:40;;;;;;;14.83;10.23;;;7.00;94.30;;;;;;5069448;28;20713;-51
2021/01/01 06:47:10;;;;;;;15.30;10.90;;;7.00;94.30;;;;;;5069886;28;21016;-51
2021/01/01 06:49:38;;;;;;;13.83;11.67;;;7.00;94.30;;;;;;5070103;28;20626;-51
2021/01/01 06:52:12;;;;;;;14.23;9.90;;;7.00;94.40;;;;;;5070027;28;20696;-51
2021/01/01 06:54:58;;;;;;;15.00;11.90;;;7.00;94.50;;;;;;5070014;28;21186;-51
2021/01/01 06:57:27;;;;;;;12.83;11.30;;;7.00;94.50;;;;;;5069445;28;20651;-51
2021/01/01 06:59:54;;;;;;;12.70;11.40;;;7.00;94.50;;;;;;5070031;28;20746;-51
2021/01/01 07:02:21;;;;;;;13.53;12.13;;;7.00;94.50;;;;;;5069983;28;20702;-51
2021/01/01 07:04:50;;;;;;;16.63;9.73;;;7.00;94.50;;;;;;5069811;28;20709;-51
2021/01/01 07:07:38;;;;;;;11.97;10.20;;;7.00;94.40;;;;;;5069715;28;20744;-51
2021/01/01 07:10:06;;;;;;;12.93;10.10;;;7.00;94.40;;;;;;5069119;28;21029;-51
2021/01/01 07:12:32;;;;;;;12.90;9.53;;;7.00;94.40;;;;;;5069728;28;21264;-51
2021/01/01 07:14:59;;;;;;;12.63;9.33;;;7.00;94.30;;;;;;5064091;28;20666;-51
2021/01/01 07:17:26;;;;;;;11.90;10.30;;;7.00;94.20;;;;;;5069485;28;20627;-51
2021/01/01 07:19:53;;;;;;;11.80;9.77;;;7.00;94.20;;;;;;5051759;28;20662;-51
2021/01/01 07:22:20;;;;;;;11.13;10.00;;;7.00;94.30;;;;;;5069437;28;20695;-52
2021/01/01 07:24:47;;;;;;;12.23;9.73;;;7.00;94.30;;;;;;5069101;28;20623;-51
2021/01/01 07:27:14;;;;;;;11.80;9.57;;;7.00;94.30;;;;;;5069642;28;20647;-51
2021/01/01 07:29:41;;;;;;;13.40;10.10;;;7.00;94.20;;;;;;5069473;28;20662;-50
2021/01/01 07:32:07;;;;;;;12.87;10.57;;;7.00;94.20;;;;;;5064163;28;21292;-51
2021/01/01 07:34:34;;;;;;;11.23;10.07;;;7.00;94.20;;;;;;5069317;28;20655;-51
2021/01/01 07:37:02;;;;;;;12.50;9.67;;;7.00;94.10;;;;;;5069005;28;20668;-50
2021/01/01 07:39:29;;;;;;;10.67;8.73;;;7.10;94.20;;;;;;5069252;28;20821;-51
2021/01/01 07:42:06;;;;;;;9.87;8.27;;;7.10;94.00;;;;;;5069593;28;20779;-51
2021/01/01 07:44:33;;;;;;;8.67;7.70;;;7.10;93.90;;;;;;5069341;28;20727;-52
2021/01/01 07:46:59;;;;;;;12.03;8.33;;;7.10;93.90;;;;;;5048076;28;20676;-50
2021/01/01 07:49:32;;;;;;;11.17;8.70;;;7.00;93.80;;;;;;5049135;28;20636;-50
2021/01/01 07:52:04;;;;;;;9.77;8.47;;;7.00;93.90;;;;;;5066575;28;20660;-51
2021/01/01 07:54:31;;;;;;;9.87;8.53;;;7.00;94.00;;;;;;5068761;28;21039;-51
2021/01/01 07:57:06;;;;;;;11.70;8.10;;;7.10;94.20;;;;;;5068525;28;20667;-50
2021/01/01 07:59:34;;;;;;;9.47;8.53;;;7.00;94.10;;;;;;5051371;28;20653;-50
2021/01/01 08:02:00;;;;;;;11.20;7.80;;;7.10;94.10;;;;;;5069524;28;20678;-50
2021/01/01 08:04:29;;;;;;;8.33;7.43;;;7.10;94.00;;;;;;5068592;28;20659;-50
2021/01/01 08:06:55;;;;;;;7.00;6.30;;;7.10;93.90;;;;;;5068946;28;20626;-50
2021/01/01 08:09:23;;;;;;;9.17;7.20;;;7.10;93.80;;;;;;5068905;28;20663;-51
2021/01/01 08:11:50;;;;;;;10.10;7.30;;;7.10;93.90;;;;;;5069573;28;20691;-51
2021/01/01 08:14:20;;;;;;;10.80;7.87;;;7.10;93.90;;;;;;5069220;28;20647;-51
2021/01/01 08:16:47;;;;;;;8.27;6.53;;;7.10;94.00;;;;;;5069110;28;20659;-51
2021/01/01 08:19:22;;;;;;;8.73;7.07;;;7.10;94.00;;;;;;5069320;28;21268;-51
2021/01/01 08:21:49;;;;;;;13.10;8.83;;;7.00;93.90;;;;;;5072298;28;20698;-51
2021/01/01 08:24:16;;;;;;;12.00;7.50;;;7.00;93.90;;;;;;5072940;28;20659;-51
2021/01/01 08:26:43;;;;;;;9.23;6.50;;;6.90;93.90;;;;;;5072725;28;20655;-51
2021/01/01 08:29:11;;;;;;;10.60;8.50;;;6.90;94.10;;;;;;5072704;28;20626;-51
2021/01/01 08:31:38;;;;;;;8.63;7.67;;;6.90;94.30;;;;;;5064053;28;21074;-51
2021/01/01 08:34:05;;;;;;;7.50;6.70;;;6.90;94.30;;;;;;5052793;28;21247;-50
2021/01/01 08:36:32;;;;;;;10.53;7.47;;;6.90;94.20;;;;;;5065955;28;20698;-50
2021/01/01 08:39:06;;;;;;;8.87;7.17;;;7.00;94.10;;;;;;5090038;28;20699;-50
2021/01/01 08:41:34;;;;;;;8.57;7.00;;;7.00;94.40;;;;;;5093106;28;20690;-50
2021/01/01 08:44:02;;;;;;;8.90;7.23;;;7.10;94.10;;;;;;5088944;28;20695;-50
2021/01/01 08:46:28;;;;;;;7.83;6.70;;;7.10;94.00;;;;;;5071928;28;20658;-50
2021/01/01 08:48:55;;;;;;;9.40;7.60;;;7.20;93.90;;;;;;5072147;28;20621;-50
2021/01/01 08:51:31;;;;;;;16.40;9.83;;;7.20;93.80;;;;;;5072834;28;20688;-50
2021/01/01 08:53:58;;;;;;;11.73;8.37;;;7.30;93.80;;;;;;5074285;28;20658;-50
2021/01/01 08:56:25;;;;;;;7.53;6.00;;;7.20;93.50;;;;;;5092823;28;20673;-50
2021/01/01 08:59:10;;;;;;;9.03;7.43;;;7.20;93.40;;;;;;5079943;28;20659;-50
2021/01/01 09:01:36;;;;;;;9.80;7.63;;;7.20;93.50;;;;;;5072307;28;20723;-50
2021/01/01 09:04:03;;;;;;;10.00;8.00;;;7.20;93.60;;;;;;5071375;28;20671;-50
2021/01/01 09:06:30;;;;;;;11.53;7.67;;;7.20;93.80;;;;;;5072441;28;20654;-51
2021/01/01 09:09:06;;;;;;;9.10;7.53;;;7.20;93.80;;;;;;5072197;28;21042;-51
2021/01/01 09:11:33;;;;;;;10.00;7.37;;;7.20;93.70;;;;;;5055974;28;20678;-51
2021/01/01 09:14:00;;;;;;;7.23;5.33;;;7.20;93.60;;;;;;5052078;28;20755;-51
2021/01/01 09:16:28;;;;;;;8.87;7.97;;;7.20;93.50;;;;;;5060872;28;20688;-51
2021/01/01 09:18:55;;;;;;;9.87;7.60;;;7.20;93.60;;;;;;5071708;28;20702;-51
2021/01/01 09:21:21;;;;;;;10.50;7.17;;;7.20;93.70;;;;;;5071762;28;21075;-51
2021/01/01 09:23:52;;;;;;;7.77;6.87;;;7.20;94.00;;;;;;5071680;28;20651;-51
2021/01/01 09:26:22;;;;;;;9.30;7.67;;;7.20;94.00;;;;;;5071888;28;20685;-51
2021/01/01 09:28:49;;;;;;;7.90;7.00;;;7.20;93.90;;;;;;5071533;28;21231;-50
2021/01/01 09:31:18;;;;;;;9.40;7.47;;;7.20;93.70;;;;;;5079521;28;20782;-50
2021/01/01 09:33:59;;;;;;;8.70;7.70;;;7.20;93.80;;;;;;5091920;28;20682;-50
2021/01/01 09:36:26;;;;;;;8.53;7.63;;;7.20;93.90;;;;;;5076507;28;20682;-50
2021/01/01 09:38:53;;;;;;;11.23;9.70;;;7.20;94.10;;;;;;5091775;28;20666;-51
2021/01/01 09:41:19;;;;;;;9.57;7.33;;;7.20;94.00;;;;;;5083697;28;20695;-51
2021/01/01 09:43:46;;;;;;;10.10;8.53;;;7.30;93.90;;;;;;5091968;28;20746;-51
2021/01/01 09:46:13;;;;;;;8.63;7.77;;;7.20;93.40;;;;;;5091659;28;20612;-51
2021/01/01 09:48:39;;;;;;;8.20;6.43;;;7.30;93.60;;;;;;5091449;28;21136;-51
2021/01/01 09:51:07;;;;;;;8.20;7.30;;;7.30;93.70;;;;;;5091129;28;20682;-50
2021/01/01 09:53:34;;;;;;;9.50;7.37;;;7.40;93.70;;;;;;5091187;28;20715;-51
2021/01/01 09:56:00;;;;;;;7.63;6.80;;;7.40;93.40;;;;;;5078355;28;20651;-50
2021/01/01 09:58:27;;;;;;;9.60;7.53;;;7.40;93.50;;;;;;5071183;28;20652;-50
2021/01/01 10:00:54;;;;;;;9.83;7.50;;;7.40;93.30;;;;;;5070671;28;20683;-50
2021/01/01 10:03:21;;;;;;;9.50;8.17;;;7.30;93.20;;;;;;5070735;28;21231;-51
2021/01/01 10:05:48;;;;;;;9.27;7.77;;;7.40;93.40;;;;;;5071093;28;20617;-51
2021/01/01 10:08:16;;;;;;;10.03;8.53;;;7.40;93.40;;;;;;5070889;28;20752;-51
2021/01/01 10:10:44;;;;;;;10.13;8.50;;;7.50;93.60;;;;;;5069968;28;21068;-50
2021/01/01 10:13:13;;;;;;;8.43;7.47;;;7.50;93.90;;;;;;5071252;28;20698;-51
2021/01/01 10:15:40;;;;;;;7.57;6.53;;;7.50;93.30;;;;;;5071145;28;20660;-50
2021/01/01 10:18:06;;;;;;;9.93;7.10;;;7.50;93.40;;;;;;5070738;28;20672;-50
2021/01/01 10:20:33;;;;;;;9.13;8.00;;;7.40;93.40;;;;;;5070527;28;20664;-51
2021/01/01 10:23:00;;;;;;;10.43;8.87;;;7.30;93.50;;;;;;5070643;28;20671;-51
2021/01/01 10:25:27;;;;;;;11.23;8.93;;;7.40;93.70;;;;;;5070988;28;20660;-52
2021/01/01 10:27:54;;;;;;;7.93;6.77;;;7.30;93.80;;;;;;5070796;28;20660;-52
2021/01/01 10:30:22;;;;;;;9.90;8.83;;;7.30;93.80;;;;;;5070162;28;20654;-51
2021/01/01 10:32:48;;;;;;;10.33;7.60;;;7.30;93.80;;;;;;5060362;28;20779;-52
2021/01/01 10:35:15;;;;;;;9.80;7.90;;;7.30;93.80;;;;;;5050813;28;20698;-51
2021/01/01 10:37:42;;;;;;;9.30;8.37;;;7.30;93.90;;;;;;5050244;28;20625;-52
2021/01/01 10:40:09;;;;;;;9.27;7.73;;;7.30;94.00;;;;;;5063361;28;20708;-52
2021/01/01 10:42:37;;;;;;;9.90;5.73;;;7.20;93.80;;;;;;5070552;28;20660;-52
2021/01/01 10:45:04;;;;;;;11.57;9.23;;;7.00;93.90;;;;;;5069873;28;20668;-52
2021/01/01 10:47:31;;;;;;;9.77;7.60;;;6.90;94.30;;;;;;5070451;28;21176;-51
2021/01/01 10:49:58;;;;;;;7.17;6.23;;;6.80;94.60;;;;;;5069442;28;20693;-51
2021/01/01 10:52:24;;;;;;;11.60;8.37;;;6.80;94.60;;;;;;5070276;28;20781;-52
2021/01/01 10:54:51;;;;;;;9.23;8.33;;;6.70;94.70;;;;;;5069903;28;20627;-52
2021/01/01 10:57:18;;;;;;;10.23;8.20;;;6.80;94.90;;;;;;5070006;28;20623;-51
2021/01/01 10:59:46;;;;;;;9.00;7.10;;;6.80;95.00;;;;;;5069717;28;20691;-51
2021/01/01 11:02:12;;;;;;;11.67;9.27;;;6.90;95.00;;;;;;5070121;28;20744;-51
2021/01/01 11:04:39;;;;;;;8.30;7.40;;;7.00;94.60;;;;;;5069911;28;20628;-52
2021/01/01 11:07:06;;;;;;;9.47;8.47;;;7.10;94.50;;;;;;5069136;28;20675;-51
2021/01/01 11:09:32;;;;;;;8.13;7.33;;;7.20;94.30;;;;;;5069659;28;20645;-50
2021/01/01 11:11:59;;;;;;;8.77;7.97;;;7.30;94.30;;;;;;5069680;28;20647;-50
2021/01/01 11:14:40;;;;;;;7.47;6.77;;;7.40;94.20;;;;;;5089496;28;20648;-49
2021/01/01 12:23:15;;;;;;;10.93;6.80;;;7.70;92.40;;;;;;5096618;28;20588;-49
2021/01/01 12:25:44;;;;;;;7.07;6.43;;;7.70;92.40;;;;;;5079716;28;21149;-50
2021/01/01 12:28:10;;;;;;;7.67;7.00;;;7.70;92.20;;;;;;5075530;28;20764;-50
2021/01/01 12:30:37;;;;;;;8.20;7.23;;;7.70;92.10;;;;;;5080808;28;20685;-50
2021/01/01 12:33:04;;;;;;;8.43;7.63;;;7.70;92.00;;;;;;5073741;28;21225;-50
2021/01/01 12:35:31;;;;;;;7.03;6.33;;;7.70;92.10;;;;;;5074505;28;20656;-51
2021/01/01 12:37:59;;;;;;;7.33;6.70;;;7.80;92.10;;;;;;5075171;28;20775;-50
2021/01/01 12:40:27;;;;;;;8.30;6.90;;;7.80;92.10;;;;;;5074967;28;20692;-50
2021/01/01 12:42:53;;;;;;;8.20;7.50;;;7.80;92.00;;;;;;5075327;28;20659;-50
2021/01/01 12:45:20;;;;;;;8.70;7.70;;;7.80;91.90;;;;;;5075170;28;20628;-52
2021/01/01 12:47:47;;;;;;;7.50;6.90;;;7.80;91.70;;;;;;5095589;28;20714;-51
2021/01/01 12:50:15;;;;;;;11.73;7.20;;;7.80;91.50;;;;;;5081991;28;20657;-51
2021/01/01 12:52:51;;;;;;;6.80;6.20;;;7.80;91.60;;;;;;5072539;28;21140;-51
2021/01/01 12:55:18;;;;;;;8.07;7.37;;;7.80;91.70;;;;;;5060003;28;20648;-50
2021/01/01 12:57:45;;;;;;;7.87;7.10;;;7.80;91.70;;;;;;5056724;28;20625;-51
2021/01/01 13:00:13;;;;;;;7.77;7.00;;;7.80;91.60;;;;;;5073367;28;20703;-51
2021/01/01 13:02:40;;;;;;;7.23;6.60;;;7.80;91.60;;;;;;5074303;28;21268;-51
2021/01/01 13:05:08;;;;;;;7.83;7.00;;;7.90;91.60;;;;;;5073982;28;20670;-50
2021/01/01 13:07:34;;;;;;;8.03;7.23;;;7.90;91.60;;;;;;5070975;28;20660;-51
2021/01/01 13:10:01;;;;;;;7.53;6.80;;;7.90;91.50;;;;;;5071178;28;20621;-51
2021/01/01 13:12:28;;;;;;;7.37;6.67;;;7.90;91.50;;;;;;5071969;28;20695;-51
2021/01/01 13:14:56;;;;;;;8.37;7.57;;;7.90;91.30;;;;;;5071762;28;20945;-51
2021/01/01 13:17:22;;;;;;;10.60;8.67;;;7.90;91.20;;;;;;5071718;28;20747;-50
2021/01/01 13:19:49;;;;;;;9.30;8.30;;;7.80;91.30;;;;;;5072079;28;21057;-50
2021/01/01 13:22:16;;;;;;;7.63;6.87;;;7.70;91.50;;;;;;5071019;28;20695;-50
2021/01/01 13:24:43;;;;;;;8.83;7.93;;;7.80;91.80;;;;;;5071808;28;20624;-50
2021/01/01 13:27:09;;;;;;;8.77;8.00;;;7.80;91.70;;;;;;5071644;28;20628;-50
2021/01/01 13:29:36;;;;;;;9.30;8.37;;;7.70;91.40;;;;;;5071466;28;20655;-50
2021/01/01 13:32:04;;;;;;;9.60;8.70;;;7.60;91.30;;;;;;5071297;28;20655;-51
2021/01/01 13:34:31;;;;;;;10.13;9.23;;;7.60;91.50;;;;;;5071590;28;20678;-50
2021/01/01 13:36:58;;;;;;;10.70;8.27;;;7.70;91.60;;;;;;5072019;28;21191;-52
2021/01/01 13:39:25;;;;;;;8.33;7.63;;;7.70;91.60;;;;;;5071852;28;20727;-50
2021/01/01 13:41:52;;;;;;;9.90;8.90;;;7.70;91.80;;;;;;5071204;28;20700;-50
2021/01/01 13:44:18;;;;;;;9.37;7.93;;;7.70;91.70;;;;;;5070164;28;20698;-50
2021/01/01 13:46:45;;;;;;;9.50;7.83;;;7.70;91.10;;;;;;5051189;28;20661;-50
2021/01/01 13:49:13;;;;;;;9.33;8.10;;;7.70;91.10;;;;;;5053022;28;20655;-50
2021/01/01 13:51:39;;;;;;;8.17;7.33;;;7.60;91.10;;;;;;5070180;28;20702;-50
2021/01/01 13:54:06;;;;;;;9.13;7.57;;;7.50;91.10;;;;;;5070153;28;20667;-50